Terminal Aerodrome Forecast
Issued by NWS

Home | Current Version | Previous Version | Text Only | Print | Product List | Glossary On
Versions: 1 2 3 4 5 6 7 8 9 10 11 12 13 14 15 16 17 18
000
FTUS41 KILN 201100
TAFLUK
TAF
KLUK 201134Z 2012/2112 00000KT P6SM SCT250
      TEMPO 2012/2013 5SM BR
     FM201500 13003KT P6SM SCT250
     FM201800 17006KT P6SM FEW050 BKN250
     FM210000 00000KT P6SM SCT050 BKN250=

USA.gov is the U.S. government's official web portal to all federal, state and local government web resources and services.